Time;durP1;ratioP1;P1;durP2;ratioP2;P2;SDS_P1;SDS_P2;PMS_P1;PMS_P2;Temp;Humidity;BMP_temperature;BMP_pressure;BME280_temperature;BME280_humidity;BME280_pressure;Samples;Min_cycle;Max_cycle;Signal;HPM_P1;HPM_P2
2023/05/14 00:01:50;;;;;;;9.55;7.93;;;;;19.60;101850.00;;;;5075873;28;20205;-81
2023/05/14 00:04:20;;;;;;;7.97;7.10;;;;;19.50;101853.00;;;;5080406;28;20726;-79
2023/05/14 00:06:47;;;;;;;8.52;7.63;;;;;19.50;101852.00;;;;5078885;28;20983;-78
2023/05/14 00:09:15;;;;;;;10.52;7.95;;;;;19.50;101858.00;;;;5080105;28;20191;-79
2023/05/14 00:11:42;;;;;;;9.23;7.55;;;;;19.50;101848.00;;;;5081137;28;20275;-78
2023/05/14 00:14:10;;;;;;;8.18;7.25;;;;;19.40;101845.00;;;;5075540;28;20222;-80
2023/05/14 00:16:37;;;;;;;8.93;7.18;;;;;19.40;101840.00;;;;5075131;28;20198;-80
2023/05/14 00:19:04;;;;;;;10.23;7.45;;;;;19.40;101840.00;;;;5076408;28;20195;-78
2023/05/14 00:21:33;;;;;;;9.40;7.60;;;;;19.30;101840.00;;;;5076346;28;20203;-80
2023/05/14 00:24:00;;;;;;;8.68;6.68;;;;;19.30;101839.00;;;;5079173;28;20893;-79
2023/05/14 00:26:28;;;;;;;8.02;6.88;;;;;19.30;101830.00;;;;5078082;28;20205;-79
2023/05/14 00:28:55;;;;;;;11.15;7.18;;;;;19.30;101830.00;;;;5079433;28;20198;-78
2023/05/14 00:31:22;;;;;;;9.45;6.90;;;;;19.30;101827.00;;;;5074675;28;20586;-78
2023/05/14 00:33:49;;;;;;;9.85;7.35;;;;;19.20;101823.00;;;;5073636;28;20219;-80
2023/05/14 00:36:17;;;;;;;7.78;6.97;;;;;19.20;101832.00;;;;5074110;28;20199;-78
2023/05/14 00:38:45;;;;;;;11.25;6.90;;;;;19.20;101828.00;;;;5075722;28;20210;-80
2023/05/14 00:41:13;;;;;;;8.13;6.60;;;;;19.20;101822.00;;;;5081502;28;20187;-78
2023/05/14 00:43:40;;;;;;;8.63;7.63;;;;;19.20;101820.00;;;;5079790;28;20207;-78
2023/05/14 00:46:07;;;;;;;13.00;6.97;;;;;19.20;101821.00;;;;5078069;28;20202;-79
2023/05/14 00:48:35;;;;;;;9.45;7.45;;;;;19.20;101816.00;;;;5077091;28;20191;-79
2023/05/14 00:51:02;;;;;;;7.30;6.60;;;;;19.10;101813.00;;;;5076691;28;20195;-79
2023/05/14 00:53:30;;;;;;;9.75;7.35;;;;;19.10;101806.00;;;;5078945;28;20222;-81
2023/05/14 00:55:59;;;;;;;7.50;6.72;;;;;19.10;101805.00;;;;5076153;28;20191;-79
2023/05/14 00:58:26;;;;;;;9.25;7.90;;;;;19.10;101802.00;;;;5079827;28;20200;-80
2023/05/14 01:00:54;;;;;;;9.60;6.53;;;;;19.10;101807.00;;;;5082091;28;20202;-80
2023/05/14 01:03:21;;;;;;;7.68;6.55;;;;;19.10;101811.00;;;;5077470;28;20242;-80
2023/05/14 01:05:59;;;;;;;10.50;7.05;;;;;19.00;101797.00;;;;5075491;28;20203;-79
2023/05/14 01:08:32;;;;;;;9.30;6.97;;;;;19.00;101804.00;;;;5076017;28;20234;-80
2023/05/14 01:11:07;;;;;;;9.70;7.05;;;;;19.00;101796.00;;;;5076395;28;20199;-81
2023/05/14 01:13:40;;;;;;;8.98;6.72;;;;;19.00;101792.00;;;;5075500;28;20198;-80
2023/05/14 01:16:13;;;;;;;7.38;6.15;;;;;19.00;101798.00;;;;5081207;28;20187;-80
2023/05/14 01:18:43;;;;;;;7.28;6.30;;;;;19.00;101804.00;;;;5080686;28;20198;-80
2023/05/14 01:21:35;;;;;;;8.40;6.68;;;;;18.90;101800.00;;;;5082641;28;20595;-79
2023/05/14 01:24:03;;;;;;;10.00;6.82;;;;;19.00;101801.00;;;;5075667;28;20226;-81
2023/05/14 01:26:31;;;;;;;7.85;6.22;;;;;19.00;101795.00;;;;5077503;28;20478;-80
2023/05/14 01:29:03;;;;;;;8.82;6.93;;;;;18.90;101789.00;;;;5078057;28;20274;-81
2023/05/14 01:31:35;;;;;;;7.35;6.55;;;;;18.90;101802.00;;;;5078868;28;20233;-80
2023/05/14 01:34:05;;;;;;;8.45;6.47;;;;;18.90;101796.00;;;;5076092;28;20215;-81
2023/05/14 01:36:35;;;;;;;6.82;5.85;;;;;18.90;101798.00;;;;5081775;28;20202;-80
2023/05/14 01:39:03;;;;;;;7.57;6.30;;;;;18.90;101798.00;;;;5080619;28;20218;-79
2023/05/14 01:41:31;;;;;;;8.68;6.53;;;;;18.90;101799.00;;;;5081136;28;20202;-79
2023/05/14 01:43:58;;;;;;;7.07;6.38;;;;;18.90;101794.00;;;;5079082;28;20661;-79
2023/05/14 01:46:26;;;;;;;7.70;5.75;;;;;18.90;101803.00;;;;5076674;28;20198;-79
2023/05/14 01:48:53;;;;;;;7.50;6.10;;;;;18.80;101798.00;;;;5081782;28;20194;-78
2023/05/14 01:51:20;;;;;;;10.32;6.97;;;;;18.80;101788.00;;;;5081771;28;20201;-80
2023/05/14 01:53:49;;;;;;;7.78;6.30;;;;;18.80;101791.00;;;;5082484;28;20190;-79
2023/05/14 01:56:17;;;;;;;8.75;5.97;;;;;18.80;101788.00;;;;5075594;28;20746;-79
2023/05/14 01:58:44;;;;;;;7.88;6.32;;;;;18.80;101790.00;;;;5078211;28;20193;-80
2023/05/14 02:01:12;;;;;;;8.18;6.43;;;;;18.80;101789.00;;;;5079457;28;20672;-80
2023/05/14 02:03:39;;;;;;;8.70;6.43;;;;;18.80;101783.00;;;;5074824;28;20278;-79
2023/05/14 02:06:06;;;;;;;7.57;5.90;;;;;18.70;101790.00;;;;5081718;28;20214;-79
2023/05/14 02:08:34;;;;;;;8.07;6.30;;;;;18.70;101784.00;;;;5081253;28;20699;-80
2023/05/14 02:11:02;;;;;;;7.18;6.10;;;;;18.70;101776.00;;;;5077770;28;20201;-79
2023/05/14 02:13:30;;;;;;;7.90;6.28;;;;;18.70;101774.00;;;;5077618;28;20206;-79
2023/05/14 02:15:57;;;;;;;8.98;7.00;;;;;18.70;101776.00;;;;5080427;28;20214;-80
2023/05/14 02:18:24;;;;;;;7.38;5.90;;;;;18.70;101769.00;;;;5077202;28;20191;-79
2023/05/14 02:20:51;;;;;;;8.27;6.90;;;;;18.70;101772.00;;;;5083576;28;20198;-79
2023/05/14 02:23:19;;;;;;;9.15;7.07;;;;;18.70;101771.00;;;;5089578;28;20202;-79
2023/05/14 02:25:46;;;;;;;9.10;6.85;;;;;18.70;101769.00;;;;5087224;28;20210;-79
2023/05/14 02:28:14;;;;;;;9.25;6.35;;;;;18.70;101765.00;;;;5071394;28;20203;-79
2023/05/14 02:30:42;;;;;;;10.45;6.43;;;;;18.70;101778.00;;;;5071467;28;20243;-79
2023/05/14 02:33:09;;;;;;;10.00;6.55;;;;;18.70;101773.00;;;;5088579;28;20194;-79
2023/05/14 02:35:36;;;;;;;9.25;5.93;;;;;18.70;101767.00;;;;5088002;28;20233;-79
2023/05/14 02:38:04;;;;;;;7.40;6.50;;;;;18.60;101766.00;;;;5088453;28;20656;-79
2023/05/14 02:40:32;;;;;;;10.93;6.82;;;;;18.70;101771.00;;;;5088809;28;20255;-79
2023/05/14 02:42:59;;;;;;;8.32;6.90;;;;;18.60;101762.00;;;;5087787;28;20209;-79
2023/05/14 02:45:27;;;;;;;7.32;6.25;;;;;18.60;101763.00;;;;5083436;28;20199;-78
2023/05/14 02:47:55;;;;;;;8.77;6.28;;;;;18.60;101764.00;;;;5088333;28;20202;-79
2023/05/14 02:50:22;;;;;;;7.13;6.03;;;;;18.60;101762.00;;;;5088251;28;20205;-79
2023/05/14 02:52:49;;;;;;;8.13;5.97;;;;;18.60;101759.00;;;;5086897;28;20656;-79
2023/05/14 02:55:17;;;;;;;7.68;6.88;;;;;18.60;101758.00;;;;5088571;28;20214;-80
2023/05/14 02:57:44;;;;;;;8.35;7.28;;;;;18.60;101758.00;;;;5088680;28;20194;-79
2023/05/14 03:00:13;;;;;;;9.02;6.50;;;;;18.60;101757.00;;;;5087253;28;20198;-78
2023/05/14 03:02:42;;;;;;;7.88;6.32;;;;;18.50;101753.00;;;;5087852;28;20198;-79
2023/05/14 03:05:09;;;;;;;8.15;6.25;;;;;18.50;101755.00;;;;5088787;28;20300;-79
2023/05/14 03:07:37;;;;;;;17.77;6.75;;;;;18.50;101759.00;;;;5088338;28;20204;-79
2023/05/14 03:10:05;;;;;;;10.35;6.45;;;;;18.50;101758.00;;;;5081071;28;20202;-79
2023/05/14 03:12:32;;;;;;;9.55;6.70;;;;;18.50;101759.00;;;;5068581;28;20199;-79
2023/05/14 03:15:00;;;;;;;7.65;6.30;;;;;18.40;101757.00;;;;5077331;28;20229;-79
2023/05/14 03:17:28;;;;;;;8.32;6.80;;;;;18.40;101758.00;;;;5088521;28;20201;-79
2023/05/14 03:19:56;;;;;;;7.28;6.38;;;;;18.40;101754.00;;;;5087533;28;20198;-79
2023/05/14 03:22:23;;;;;;;8.18;6.15;;;;;18.40;101749.00;;;;5087952;28;20205;-79
2023/05/14 03:24:51;;;;;;;7.75;6.35;;;;;18.40;101747.00;;;;5087644;28;20590;-80
2023/05/14 03:27:18;;;;;;;7.22;5.95;;;;;18.30;101753.00;;;;5086422;28;20204;-79
2023/05/14 03:29:45;;;;;;;9.73;6.65;;;;;18.30;101753.00;;;;5087814;28;20206;-79
2023/05/14 03:32:13;;;;;;;8.82;6.45;;;;;18.30;101747.00;;;;5087551;28;20304;-78
2023/05/14 03:34:40;;;;;;;8.23;6.10;;;;;18.30;101754.00;;;;5079283;28;20218;-79
2023/05/14 03:37:09;;;;;;;8.35;6.80;;;;;18.30;101745.00;;;;5082293;28;20198;-79
2023/05/14 03:39:36;;;;;;;9.88;6.32;;;;;18.30;101749.00;;;;5087901;28;20221;-79
2023/05/14 03:42:04;;;;;;;8.70;6.63;;;;;18.30;101747.00;;;;5087483;28;20209;-79
2023/05/14 03:44:31;;;;;;;9.73;6.47;;;;;18.30;101747.00;;;;5087368;28;20205;-78
2023/05/14 03:46:58;;;;;;;7.70;6.10;;;;;18.20;101747.00;;;;5088250;28;20202;-79
2023/05/14 03:49:25;;;;;;;6.90;5.75;;;;;18.20;101750.00;;;;5087680;28;20216;-79
2023/05/14 03:51:53;;;;;;;8.73;6.18;;;;;18.20;101748.00;;;;5087706;28;20202;-79
2023/05/14 03:54:21;;;;;;;7.40;5.60;;;;;18.20;101745.00;;;;5087198;28;20209;-79
2023/05/14 03:56:49;;;;;;;8.27;5.53;;;;;18.20;101745.00;;;;5087849;28;20209;-79
2023/05/14 03:59:16;;;;;;;10.48;5.97;;;;;18.20;101748.00;;;;5086749;28;20290;-79
2023/05/14 04:01:44;;;;;;;10.98;7.47;;;;;18.10;101745.00;;;;5088115;28;20209;-79
2023/05/14 04:04:11;;;;;;;12.27;7.30;;;;;18.10;101742.00;;;;5087497;28;20255;-79
2023/05/14 04:06:38;;;;;;;8.80;6.45;;;;;18.10;101743.00;;;;5088059;28;20198;-79
2023/05/14 04:09:06;;;;;;;7.63;6.53;;;;;18.10;101734.00;;;;5087349;28;20304;-79
2023/05/14 04:11:34;;;;;;;7.30;6.60;;;;;18.10;101745.00;;;;5086994;28;20199;-79
2023/05/14 04:14:01;;;;;;;9.27;5.78;;;;;18.10;101734.00;;;;5089938;28;20198;-78
2023/05/14 04:16:29;;;;;;;8.27;6.30;;;;;18.10;101740.00;;;;5090469;28;20703;-79
2023/05/14 04:18:56;;;;;;;8.38;6.50;;;;;18.00;101734.00;;;;5091895;28;20205;-78
2023/05/14 04:21:23;;;;;;;10.00;6.97;;;;;18.00;101725.00;;;;5090772;28;20209;-80
2023/05/14 04:23:51;;;;;;;6.90;5.82;;;;;18.00;101727.00;;;;5091798;28;20205;-80
2023/05/14 04:26:18;;;;;;;9.20;6.05;;;;;18.00;101733.00;;;;5088979;28;20195;-78
2023/05/14 04:28:46;;;;;;;9.70;7.15;;;;;18.00;101728.00;;;;5090043;28;20210;-77
2023/05/14 04:31:15;;;;;;;9.27;6.32;;;;;18.00;101730.00;;;;5090274;28;20222;-79
2023/05/14 04:33:42;;;;;;;8.70;6.18;;;;;18.00;101730.00;;;;5084031;28;20217;-79
2023/05/14 04:36:09;;;;;;;9.10;7.18;;;;;18.00;101731.00;;;;5090686;28;20233;-79
2023/05/14 04:38:37;;;;;;;8.13;7.07;;;;;18.00;101726.00;;;;5091305;28;20603;-78
2023/05/14 04:41:04;;;;;;;7.82;6.28;;;;;18.00;101724.00;;;;5091221;28;20566;-79
2023/05/14 04:43:32;;;;;;;8.88;6.05;;;;;18.00;101733.00;;;;5089609;28;20202;-79
2023/05/14 04:46:00;;;;;;;9.00;6.55;;;;;18.00;101730.00;;;;5070681;28;20203;-79
2023/05/14 04:48:28;;;;;;;9.30;6.35;;;;;18.00;101730.00;;;;5070963;28;20195;-80
2023/05/14 04:50:55;;;;;;;8.63;6.25;;;;;18.10;101733.00;;;;5083913;28;20198;-79
2023/05/14 04:53:23;;;;;;;9.70;6.45;;;;;18.10;101730.00;;;;5090861;28;20205;-80
2023/05/14 04:55:50;;;;;;;9.18;6.65;;;;;18.10;101728.00;;;;5075181;28;20222;-80
2023/05/14 04:58:18;;;;;;;8.90;6.55;;;;;18.10;101730.00;;;;5084511;28;20197;-79
2023/05/14 05:00:45;;;;;;;16.58;6.57;;;;;18.10;101739.00;;;;5090614;28;20261;-79
2023/05/14 05:03:14;;;;;;;7.80;6.53;;;;;18.10;101741.00;;;;5081519;28;20199;-78
2023/05/14 05:05:41;;;;;;;8.48;5.40;;;;;18.20;101736.00;;;;5081995;28;20210;-79
2023/05/14 05:08:10;;;;;;;7.22;6.13;;;;;18.20;101747.00;;;;5084268;28;20210;-80
2023/05/14 05:10:37;;;;;;;10.65;6.70;;;;;18.20;101743.00;;;;5078438;28;20558;-80
2023/05/14 05:13:04;;;;;;;6.97;6.00;;;;;18.20;101738.00;;;;5070565;28;20803;-78
2023/05/14 05:15:31;;;;;;;8.02;6.00;;;;;18.30;101743.00;;;;5081352;28;20228;-79
2023/05/14 05:17:59;;;;;;;8.05;5.40;;;;;18.30;101739.00;;;;5072961;28;20202;-78
2023/05/14 05:20:28;;;;;;;6.68;5.70;;;;;18.30;101743.00;;;;5072260;28;20195;-78
2023/05/14 05:22:55;;;;;;;7.10;5.35;;;;;18.30;101733.00;;;;5088785;28;20194;-79
2023/05/14 05:25:23;;;;;;;7.78;5.50;;;;;18.30;101742.00;;;;5088275;28;20210;-78
2023/05/14 05:27:50;;;;;;;7.95;4.95;;;;;18.30;101740.00;;;;5085844;28;20201;-79
2023/05/14 05:30:18;;;;;;;7.40;5.40;;;;;18.40;101733.00;;;;5069403;28;20226;-78
2023/05/14 05:32:45;;;;;;;6.70;5.63;;;;;18.40;101745.00;;;;5078995;28;20199;-79
2023/05/14 05:35:12;;;;;;;7.80;5.50;;;;;18.40;101746.00;;;;5071314;28;20213;-79
2023/05/14 05:37:44;;;;;;;7.65;5.53;;;;;18.40;101744.00;;;;5087513;28;20191;-78
2023/05/14 05:40:12;;;;;;;6.70;5.50;;;;;18.50;101753.00;;;;5068997;28;20215;-78
2023/05/14 05:42:40;;;;;;;6.60;5.53;;;;;18.60;101756.00;;;;5088172;28;20203;-78
2023/05/14 05:45:08;;;;;;;7.95;5.35;;;;;18.60;101760.00;;;;5082672;28;20199;-79
2023/05/14 05:47:35;;;;;;;7.40;4.78;;;;;18.60;101760.00;;;;5069757;28;20575;-80
2023/05/14 05:50:03;;;;;;;8.48;5.95;;;;;18.70;101762.00;;;;5070679;28;20664;-80
2023/05/14 05:52:30;;;;;;;8.27;5.22;;;;;18.70;101757.00;;;;5073204;28;20213;-80
2023/05/14 05:54:59;;;;;;;9.43;6.30;;;;;18.80;101753.00;;;;5069482;28;20952;-79
2023/05/14 05:57:27;;;;;;;8.65;5.32;;;;;18.80;101756.00;;;;5073417;28;20360;-80
2023/05/14 05:59:54;;;;;;;8.60;5.38;;;;;18.90;101749.00;;;;5086744;28;20205;-80
2023/05/14 06:02:21;;;;;;;8.80;4.68;;;;;19.00;101766.00;;;;5074236;28;20195;-79
2023/05/14 06:04:49;;;;;;;6.63;5.35;;;;;19.00;101764.00;;;;5078047;28;20195;-80
2023/05/14 06:07:16;;;;;;;5.78;5.00;;;;;19.10;101758.00;;;;5076519;28;20202;-80
2023/05/14 06:09:43;;;;;;;6.60;5.15;;;;;19.20;101755.00;;;;5072171;28;20203;-80
2023/05/14 06:12:12;;;;;;;7.72;5.78;;;;;19.20;101759.00;;;;5076271;28;20201;-79
2023/05/14 06:14:39;;;;;;;6.97;5.05;;;;;19.40;101758.00;;;;5087189;28;20236;-81
2023/05/14 06:17:07;;;;;;;6.18;4.80;;;;;19.40;101758.00;;;;5086570;28;20248;-81
2023/05/14 06:19:34;;;;;;;6.30;5.30;;;;;19.50;101760.00;;;;5085939;28;20194;-79
2023/05/14 06:22:02;;;;;;;7.13;4.97;;;;;19.60;101760.00;;;;5080550;28;20198;-78
2023/05/14 06:24:29;;;;;;;8.88;5.22;;;;;19.70;101759.00;;;;5080964;28;20205;-81
2023/05/14 06:26:56;;;;;;;7.25;4.65;;;;;19.80;101767.00;;;;5076011;28;20202;-82
2023/05/14 06:29:25;;;;;;;9.88;5.35;;;;;19.80;101773.00;;;;5080362;28;20186;-80
2023/05/14 06:31:53;;;;;;;7.85;5.53;;;;;20.00;101778.00;;;;5069809;28;20238;-79
2023/05/14 06:34:20;;;;;;;7.45;5.60;;;;;20.10;101782.00;;;;5078677;28;20198;-80
2023/05/14 06:36:48;;;;;;;13.68;5.93;;;;;20.20;101774.00;;;;5087591;28;20245;-79
2023/05/14 06:39:15;;;;;;;5.93;4.15;;;;;20.20;101763.00;;;;5080187;28;20229;-81
2023/05/14 06:41:42;;;;;;;5.65;4.78;;;;;20.30;101769.00;;;;5078907;28;20199;-81
2023/05/14 06:44:09;;;;;;;4.78;4.32;;;;;20.40;101768.00;;;;5077276;28;20194;-81
2023/05/14 06:46:38;;;;;;;7.05;5.25;;;;;20.50;101766.00;;;;5077927;28;20190;-81
2023/05/14 06:49:06;;;;;;;6.60;4.57;;;;;20.60;101769.00;;;;5083195;28;20206;-81
2023/05/14 06:51:33;;;;;;;8.65;4.88;;;;;20.70;101764.00;;;;5088552;28;20203;-81
2023/05/14 06:54:00;;;;;;;6.13;4.43;;;;;20.80;101764.00;;;;5088230;28;20663;-83
2023/05/14 06:56:27;;;;;;;7.53;4.78;;;;;20.90;101757.00;;;;5088099;28;20683;-81
2023/05/14 06:58:55;;;;;;;5.75;4.20;;;;;20.90;101755.00;;;;5087398;28;20202;-80
2023/05/14 07:01:23;;;;;;;5.68;4.53;;;;;21.00;101761.00;;;;5087205;28;20202;-81
2023/05/14 07:03:52;;;;;;;9.70;5.38;;;;;21.00;101755.00;;;;5088130;28;20283;-80
2023/05/14 07:06:19;;;;;;;5.18;4.13;;;;;21.10;101756.00;;;;5088427;28;20421;-81
2023/05/14 07:08:46;;;;;;;5.43;3.78;;;;;21.10;101751.00;;;;5088009;28;20190;-81
2023/05/14 07:11:15;;;;;;;6.72;4.43;;;;;21.20;101756.00;;;;5088193;28;20554;-81
2023/05/14 07:13:42;;;;;;;5.43;3.95;;;;;21.20;101759.00;;;;5088960;28;20243;-80
2023/05/14 07:16:11;;;;;;;4.35;3.70;;;;;21.30;101749.00;;;;5087264;28;20699;-80
2023/05/14 07:18:39;;;;;;;6.05;4.38;;;;;21.30;101747.00;;;;5087368;28;20202;-80
2023/05/14 07:21:08;;;;;;;4.85;3.80;;;;;21.40;101755.00;;;;5084050;28;20513;-80
2023/05/14 07:23:37;;;;;;;5.55;4.18;;;;;21.50;101757.00;;;;5088300;28;20201;-80
2023/05/14 07:26:05;;;;;;;4.18;3.78;;;;;21.50;101754.00;;;;5087175;28;20664;-80
2023/05/14 07:28:32;;;;;;;5.40;4.13;;;;;21.60;101763.00;;;;5088533;28;20201;-80
2023/05/14 07:31:00;;;;;;;4.65;4.22;;;;;21.60;101762.00;;;;5087283;28;20234;-79
2023/05/14 07:33:27;;;;;;;5.88;4.55;;;;;21.70;101762.00;;;;5086376;28;20210;-79
2023/05/14 07:35:54;;;;;;;4.75;3.95;;;;;21.70;101763.00;;;;5086835;28;20222;-80
2023/05/14 07:38:23;;;;;;;5.65;3.60;;;;;21.80;101755.00;;;;5082223;28;20198;-81
2023/05/14 07:40:50;;;;;;;6.82;3.97;;;;;21.90;101750.00;;;;5085992;28;20209;-80
2023/05/14 07:43:17;;;;;;;4.13;3.67;;;;;22.00;101746.00;;;;5087573;28;20208;-82
2023/05/14 07:45:45;;;;;;;6.38;4.35;;;;;22.10;101752.00;;;;5087150;28;20201;-81
2023/05/14 07:48:14;;;;;;;6.68;4.30;;;;;22.10;101745.00;;;;5087850;28;20208;-80
2023/05/14 07:50:42;;;;;;;5.57;4.53;;;;;22.20;101756.00;;;;5089615;28;20706;-80
2023/05/14 07:53:09;;;;;;;6.32;4.93;;;;;22.30;101746.00;;;;5082590;28;20551;-81
2023/05/14 07:55:38;;;;;;;6.80;5.15;;;;;22.40;101745.00;;;;5071478;28;20292;-80
2023/05/14 07:58:05;;;;;;;5.78;4.70;;;;;22.50;101746.00;;;;5085513;28;20205;-80
2023/05/14 08:00:32;;;;;;;6.10;4.55;;;;;22.60;101749.00;;;;5092069;28;20202;-81
2023/05/14 08:03:00;;;;;;;8.57;5.03;;;;;22.70;101751.00;;;;5091519;28;20194;-80
2023/05/14 08:05:27;;;;;;;4.80;4.30;;;;;22.80;101753.00;;;;5087114;28;20653;-80
2023/05/14 08:07:54;;;;;;;7.50;5.28;;;;;22.90;101750.00;;;;5075819;28;20202;-80
2023/05/14 08:10:22;;;;;;;7.97;5.05;;;;;23.00;101754.00;;;;5090327;28;20213;-80
2023/05/14 08:12:50;;;;;;;5.30;4.72;;;;;23.00;101754.00;;;;5089086;28;20198;-79
2023/05/14 08:15:17;;;;;;;7.22;5.40;;;;;23.10;101753.00;;;;5089587;28;20704;-80
2023/05/14 08:17:45;;;;;;;7.88;5.57;;;;;23.20;101759.00;;;;5090428;28;20228;-80
2023/05/14 08:20:12;;;;;;;5.32;4.72;;;;;23.20;101762.00;;;;5088870;28;20590;-81
2023/05/14 08:22:39;;;;;;;6.22;4.65;;;;;23.30;101760.00;;;;5089562;28;20209;-79
2023/05/14 08:25:07;;;;;;;5.97;4.85;;;;;23.40;101755.00;;;;5089941;28;21032;-79
2023/05/14 08:27:35;;;;;;;8.43;4.93;;;;;23.40;101754.00;;;;5087962;28;20210;-80
2023/05/14 08:30:05;;;;;;;7.47;4.78;;;;;23.40;101752.00;;;;5089586;28;20572;-81
2023/05/14 08:32:32;;;;;;;5.18;4.68;;;;;23.40;101755.00;;;;5084807;28;20272;-79
2023/05/14 08:34:59;;;;;;;5.18;4.68;;;;;23.50;101754.00;;;;5076935;28;20186;-81
2023/05/14 08:37:27;;;;;;;7.30;4.30;;;;;23.60;101761.00;;;;5090720;28;20233;-79
2023/05/14 08:39:55;;;;;;;5.82;4.47;;;;;23.60;101753.00;;;;5087400;28;20227;-79
2023/05/14 08:42:25;;;;;;;4.65;3.75;;;;;23.70;101744.00;;;;5088945;28;20195;-80
2023/05/14 08:44:57;;;;;;;4.78;3.88;;;;;23.80;101742.00;;;;5078205;28;20198;-80
2023/05/14 08:47:27;;;;;;;4.50;3.75;;;;;23.90;101742.00;;;;5091789;28;20677;-80
2023/05/14 08:50:01;;;;;;;4.90;3.75;;;;;23.90;101738.00;;;;5091752;28;20201;-80
2023/05/14 08:52:29;;;;;;;6.47;4.38;;;;;24.10;101742.00;;;;5090948;28;20205;-80
2023/05/14 08:54:57;;;;;;;5.40;3.75;;;;;24.20;101738.00;;;;5090247;28;20194;-80
2023/05/14 08:57:26;;;;;;;5.30;4.15;;;;;24.30;101732.00;;;;5091130;28;20234;-80
2023/05/14 08:59:53;;;;;;;5.05;3.38;;;;;24.40;101730.00;;;;5089701;28;20206;-80
2023/05/14 09:02:23;;;;;;;5.38;3.70;;;;;24.60;101727.00;;;;5089974;28;20569;-80
2023/05/14 09:04:55;;;;;;;4.38;3.40;;;;;24.70;101730.00;;;;5091268;28;20733;-79
2023/05/14 09:07:22;;;;;;;6.53;3.70;;;;;24.90;101722.00;;;;5091327;28;20202;-79
2023/05/14 09:09:50;;;;;;;4.38;3.35;;;;;25.00;101724.00;;;;5089110;28;20201;-79
2023/05/14 09:12:18;;;;;;;6.30;3.38;;;;;25.20;101728.00;;;;5089114;28;20202;-79
2023/05/14 09:14:45;;;;;;;4.53;2.80;;;;;25.30;101724.00;;;;5089891;28;20195;-79
2023/05/14 09:17:13;;;;;;;3.75;3.33;;;;;25.40;101724.00;;;;5089852;28;20222;-79
2023/05/14 09:19:40;;;;;;;4.70;3.30;;;;;25.50;101727.00;;;;5090934;28;20194;-79
2023/05/14 09:22:12;;;;;;;4.88;3.40;;;;;25.50;101716.00;;;;5088802;28;20675;-80
2023/05/14 09:24:40;;;;;;;4.00;3.28;;;;;25.60;101717.00;;;;5091195;28;20201;-79
2023/05/14 09:27:08;;;;;;;4.07;3.10;;;;;25.70;101711.00;;;;5088086;28;20206;-80
2023/05/14 09:29:36;;;;;;;4.72;3.22;;;;;25.80;101710.00;;;;5088993;28;20200;-79
2023/05/14 09:32:06;;;;;;;3.60;3.30;;;;;25.90;101704.00;;;;5087761;28;20307;-80
2023/05/14 09:34:36;;;;;;;6.40;3.58;;;;;26.00;101711.00;;;;5090591;28;20198;-79
2023/05/14 09:37:07;;;;;;;5.13;3.22;;;;;26.10;101710.00;;;;5090194;28;20755;-79
2023/05/14 09:39:37;;;;;;;4.20;2.83;;;;;26.20;101703.00;;;;5090665;28;20230;-80
2023/05/14 09:42:05;;;;;;;4.97;3.83;;;;;26.30;101707.00;;;;5087248;28;20206;-79
2023/05/14 09:44:32;;;;;;;3.75;3.20;;;;;26.40;101693.00;;;;5089585;28;20285;-80
2023/05/14 09:46:59;;;;;;;5.60;3.22;;;;;26.50;101706.00;;;;5090582;28;20642;-79
2023/05/14 09:49:27;;;;;;;3.95;2.72;;;;;26.60;101703.00;;;;5089528;28;20198;-80
2023/05/14 09:51:56;;;;;;;4.40;2.90;;;;;26.60;101709.00;;;;5088531;28;20243;-80
2023/05/14 09:54:25;;;;;;;4.35;3.20;;;;;26.70;101704.00;;;;5088946;28;20198;-80
2023/05/14 09:56:54;;;;;;;5.22;3.63;;;;;26.70;101701.00;;;;5089420;28;20714;-80
2023/05/14 09:59:21;;;;;;;5.40;3.10;;;;;26.70;101699.00;;;;5090420;28;20659;-80
2023/05/14 10:01:51;;;;;;;4.78;3.25;;;;;26.80;101707.00;;;;5090264;28;20202;-80
2023/05/14 10:04:19;;;;;;;4.60;2.88;;;;;26.80;101702.00;;;;5089941;28;20199;-81
2023/05/14 10:06:50;;;;;;;8.27;3.65;;;;;26.80;101702.00;;;;5088936;28;20209;-80
2023/05/14 10:09:20;;;;;;;4.85;3.30;;;;;26.90;101700.00;;;;5088191;28;20194;-80
2023/05/14 10:11:53;;;;;;;2.78;2.58;;;;;26.90;101703.00;;;;5088272;28;20205;-80
2023/05/14 10:14:27;;;;;;;3.72;2.78;;;;;27.00;101699.00;;;;5089675;28;20210;-80
2023/05/14 10:16:55;;;;;;;4.07;3.08;;;;;27.10;101692.00;;;;5087671;28;20217;-79
2023/05/14 10:19:25;;;;;;;3.42;3.10;;;;;27.10;101696.00;;;;5087789;28;20216;-82
2023/05/14 10:21:56;;;;;;;4.75;3.28;;;;;27.20;101699.00;;;;5089792;28;20202;-79
2023/05/14 10:24:24;;;;;;;4.22;3.15;;;;;27.30;101686.00;;;;5086093;28;20216;-82
2023/05/14 10:26:52;;;;;;;4.32;2.75;;;;;27.40;101688.00;;;;5087288;28;20206;-80
2023/05/14 10:29:31;;;;;;;4.07;3.00;;;;;27.40;101687.00;;;;5075643;28;20218;-81
2023/05/14 10:31:58;;;;;;;3.78;3.08;;;;;27.50;101683.00;;;;5081426;28;20226;-79
2023/05/14 10:34:41;;;;;;;5.18;2.72;;;;;27.40;101682.00;;;;5082357;28;20206;-79
2023/05/14 10:37:09;;;;;;;3.50;2.90;;;;;27.60;101682.00;;;;5088668;28;20249;-80
2023/05/14 10:39:44;;;;;;;3.55;2.50;;;;;27.60;101676.00;;;;5089517;28;20234;-79
2023/05/14 10:42:13;;;;;;;3.42;2.47;;;;;27.70;101671.00;;;;5085017;28;20198;-80
2023/05/14 10:44:57;;;;;;;3.03;2.60;;;;;27.60;101675.00;;;;5089254;28;20198;-79
2023/05/14 10:47:26;;;;;;;6.43;2.92;;;;;27.70;101674.00;;;;5082666;28;20195;-80
2023/05/14 10:49:56;;;;;;;4.38;2.88;;;;;27.80;101669.00;;;;5089297;28;20190;-80
2023/05/14 10:52:24;;;;;;;4.13;2.78;;;;;27.80;101683.00;;;;5088169;28;20560;-80
2023/05/14 10:54:53;;;;;;;3.00;2.70;;;;;27.90;101674.00;;;;5087177;28;20224;-79
2023/05/14 10:57:22;;;;;;;5.25;3.08;;;;;27.90;101666.00;;;;5086453;28;20692;-79
2023/05/14 10:59:53;;;;;;;4.25;2.65;;;;;27.90;101663.00;;;;5088269;28;20464;-80
2023/05/14 11:02:24;;;;;;;5.45;2.58;;;;;28.00;101656.00;;;;5089446;28;20190;-80
2023/05/14 11:05:02;;;;;;;3.63;2.35;;;;;28.00;101660.00;;;;5089134;28;20289;-80
2023/05/14 11:07:30;;;;;;;3.60;2.80;;;;;28.10;101659.00;;;;5086949;28;20454;-79
2023/05/14 11:10:02;;;;;;;4.97;3.05;;;;;28.10;101654.00;;;;5087834;28;20668;-80
2023/05/14 11:12:30;;;;;;;4.53;2.67;;;;;28.20;101653.00;;;;5087617;28;20198;-79
2023/05/14 11:15:02;;;;;;;4.85;2.65;;;;;28.10;101658.00;;;;5088234;28;20241;-79
2023/05/14 11:17:31;;;;;;;3.38;2.63;;;;;28.20;101651.00;;;;5087667;28;20249;-80
2023/05/14 11:19:59;;;;;;;2.58;2.28;;;;;28.20;101644.00;;;;5088586;28;20217;-78
2023/05/14 11:22:27;;;;;;;7.28;3.15;;;;;28.30;101650.00;;;;5087721;28;20202;-79
2023/05/14 11:24:54;;;;;;;5.05;2.88;;;;;28.30;101650.00;;;;5088913;28;20205;-80
2023/05/14 11:27:22;;;;;;;4.15;2.47;;;;;28.40;101650.00;;;;5088698;28;20202;-80
2023/05/14 11:29:50;;;;;;;4.50;2.63;;;;;28.40;101645.00;;;;5087608;28;20203;-80
2023/05/14 11:32:20;;;;;;;2.97;2.72;;;;;28.40;101652.00;;;;5087578;28;20310;-79
2023/05/14 11:34:48;;;;;;;5.72;2.42;;;;;28.40;101643.00;;;;5087896;28;20285;-79
2023/05/14 11:37:16;;;;;;;2.60;2.30;;;;;28.40;101636.00;;;;5088111;28;20714;-80
2023/05/14 11:39:48;;;;;;;4.53;2.53;;;;;28.40;101638.00;;;;5087393;28;20301;-80
2023/05/14 11:42:18;;;;;;;4.70;2.22;;;;;28.40;101636.00;;;;5079234;28;20202;-80
2023/05/14 11:44:47;;;;;;;3.33;2.30;;;;;28.50;101630.00;;;;5087624;28;20194;-80
2023/05/14 11:47:15;;;;;;;3.88;2.13;;;;;28.50;101627.00;;;;5087633;28;20272;-79
2023/05/14 11:49:44;;;;;;;4.00;2.72;;;;;28.50;101624.00;;;;5087874;28;20206;-80
2023/05/14 11:52:13;;;;;;;4.65;2.78;;;;;28.50;101626.00;;;;5086069;28;20194;-79
2023/05/14 11:54:41;;;;;;;4.03;2.80;;;;;28.50;101625.00;;;;5087575;28;20296;-80
2023/05/14 11:57:10;;;;;;;3.97;2.55;;;;;28.60;101621.00;;;;5086384;28;20586;-80
2023/05/14 11:59:39;;;;;;;4.43;2.53;;;;;28.60;101615.00;;;;5088004;28;20552;-80
2023/05/14 12:02:10;;;;;;;3.83;1.98;;;;;28.60;101617.00;;;;5086783;28;20213;-80
2023/05/14 12:04:38;;;;;;;2.95;2.00;;;;;28.60;101623.00;;;;5087596;28;20293;-80
2023/05/14 12:07:11;;;;;;;4.93;2.47;;;;;28.60;101621.00;;;;5086700;28;20785;-80
2023/05/14 12:09:39;;;;;;;4.68;2.40;;;;;28.60;101619.00;;;;5087828;28;20197;-78
2023/05/14 12:12:11;;;;;;;3.03;2.42;;;;;28.60;101602.00;;;;5086567;28;20206;-80
2023/05/14 12:14:40;;;;;;;3.83;2.65;;;;;28.70;101608.00;;;;5087918;28;20194;-79